Repülésmeteorológia

METAR


Utolsó módosítás időpontja: 2022-05-17 13:25:00
163
SAHU41 HASM 171330
METAR LHSM 171315Z AUTO 02012KT 7000 +TSRA BKN037 BKN045 //////CB 18/17 Q1017 BECMG NSW

TAF


Utolsó módosítás időpontja: 2022-05-17 11:25:00
155
FCHU99 LHSM 171100
TAF LHSM 171115Z 1712/1721 30004KT 9999 SCT040 BKN070
TEMPO 1712/1721 VRB12KT 8000 SHRA SCT040TCU BKN070
PROB30 TEMPO 1712/1721 VRB17G28KT 2500 +TSRA SCT030CB BKN060
BECMG 1712/1715 31009KT CAVOK
BECMG 1718/1721 33014G24KT





MOBIL Parkolás
Parkoljon készpénzmentesen, applikációval Hévízen!
További információ: